UIBB Airport Information

Runway Information
Runway 12 Length 10368 ft width 197 ft
Elevation 1606 ft Threshold 0 ft Heading 115
Runway 30 Length 10368 ft Width 197 ft
Elevation 1602 ft Threshold 0 ft Heading 295
Airport Frequencies
Type GND Name TAXIING Frequency 121.8 MHZ
Type MISC Name TRANSIT Frequency 131.8 MHZ
Type PMSV Name METEO Frequency 127.2 MHZ
Type TWR Name KRUG Frequency 118.1 MHZ
Airport Navaids
Type VOR-DME Name Bratsk Frequency 113600 KHZ
Type NDB Name Bratsk Frequency 374 KHZ
Type NDB Name Bratsk Frequency 374 KHZ
Airport Weather Information & NOTAM
ADDS - METARS form results

(2347 UTC 29 March 2020)
Data provider http://aviationweather.gov/metar/data/
 
METAR text: UIBB 292330Z 25006MPS 220V280 9999 SCT030CB M04/M06 Q1017 R30/420250 NOSIG RMK QFE720/0960
Conditions at: UIBB (BRATSK/IRKUTSK , RU) observed 2330 UTC 29 March 2020
Temperature: -4.0°C (25°F)
Dewpoint: -6.0°C (21°F) [RH = 86%]
Pressure (altimeter): 30.03 inches Hg (1017.0 mb)
Winds: from the WSW (250 degrees) at 14 MPH (12 knots; 6.2 m/s)
Visibility: 6 or more miles (10+ km)
Ceiling: at least 12,000 feet AGL
Clouds: scattered clouds at 3000 feet AGL
Weather: no significant weather observed at this time

METAR text: UIBB 292300Z 25006MPS 3100 R30/1900D -SHSN SCT014CB M04/M06 Q1017 RESHSN R30/420250 NOSIG RMK QFE719/0959
Conditions at: UIBB (BRATSK/IRKUTSK , RU) observed 2300 UTC 29 March 2020
Temperature: -4.0°C (25°F)
Dewpoint: -6.0°C (21°F) [RH = 86%]
Pressure (altimeter): 30.03 inches Hg (1017.0 mb)
Winds: from the WSW (250 degrees) at 14 MPH (12 knots; 6.2 m/s)
Visibility: 1.93 miles (3.11 km)
Ceiling: at least 12,000 feet AGL
Clouds: scattered clouds at 1400 feet AGL
Weather: -SHSN  (light snow showers)

Forecast for: UIBB (BRATSK/IRKUTSK , RU)
Text: TAF UIBB 292300Z 3000/3024 25006G14MPS 6000 -SHSN DRSN BKN016CB
Forecast period: 0000 UTC 30 March 2020 to 0000 UTC 31 March 2020
Forecast type: FROM: standard forecast or significant change
Winds: from the WSW (250 degrees) at 14 MPH (12 knots; 6.2 m/s)
gusting to 31 MPH (27 knots; 13.9 m/s)
Visibility: 4 miles (6 km)
Ceiling: 1600 feet AGL
Clouds: broken clouds at 1600 feet AGL
Weather: -SHSN DRSN  (light snow showers, low drifting snow)
Text: TEMPO 3000/3009 28011G21MPS 0700 +SHSN BLSN BKN007 BKN016CB
Forecast period: 0000 to 0900 UTC 30 March 2020
Forecast type: TEMPORARY: The following changes expected for less than half the time period
Winds: from the W (280 degrees) at 24 MPH (21 knots; 10.8 m/s)
gusting to 47 MPH (41 knots; 21.1 m/s)
Visibility: 0.43 miles (0.69 km)
Ceiling: 700 feet AGL
Clouds: broken clouds at 700 feet AGL
broken clouds at 1600 feet AGL
Weather: +SHSN BLSN  (heavy snow showers, blowing snow)